Aviation Digital Data Service (ADDS)

Output produced by METARs form (0640 UTC 23 October 2014)
found at http://aviationweather.gov/adds/metars/
 
KBGR 230540Z 2306/2406 04013KT 6SM -RA OVC007 
     FM231000 04014KT 3SM -RA OVC003 
     FM231600 04015G25KT 3SM +RA SCT003 OVC007 
     FM232200 02020G30KT 4SM -RA OVC006